sensor_id;sensor_type;location;lat;lon;timestamp;P1;durP1;ratioP1;P2;durP2;ratioP2
23394;SDS011;11870;53.084;18.206;2023-08-30T00:00:58;24.23;;;14.20;;
23394;SDS011;11870;53.084;18.206;2023-08-30T00:03:35;25.90;;;14.65;;
23394;SDS011;11870;53.084;18.206;2023-08-30T00:06:03;23.73;;;13.45;;
23394;SDS011;11870;53.084;18.206;2023-08-30T00:08:30;23.73;;;14.15;;
23394;SDS011;11870;53.084;18.206;2023-08-30T00:10:56;20.70;;;13.05;;
23394;SDS011;11870;53.084;18.206;2023-08-30T00:13:28;26.52;;;13.80;;
23394;SDS011;11870;53.084;18.206;2023-08-30T00:15:56;21.65;;;13.98;;
23394;SDS011;11870;53.084;18.206;2023-08-30T00:18:22;29.55;;;15.40;;
23394;SDS011;11870;53.084;18.206;2023-08-30T00:20:49;22.23;;;14.13;;
23394;SDS011;11870;53.084;18.206;2023-08-30T00:23:15;24.13;;;13.75;;
23394;SDS011;11870;53.084;18.206;2023-08-30T00:25:42;24.50;;;13.70;;
23394;SDS011;11870;53.084;18.206;2023-08-30T00:28:08;25.55;;;15.35;;
23394;SDS011;11870;53.084;18.206;2023-08-30T00:30:34;28.48;;;13.95;;
23394;SDS011;11870;53.084;18.206;2023-08-30T00:33:00;25.35;;;14.63;;
23394;SDS011;11870;53.084;18.206;2023-08-30T00:35:26;23.42;;;14.02;;
23394;SDS011;11870;53.084;18.206;2023-08-30T00:37:52;24.67;;;14.38;;
23394;SDS011;11870;53.084;18.206;2023-08-30T00:40:22;29.88;;;14.88;;
23394;SDS011;11870;53.084;18.206;2023-08-30T00:42:51;22.17;;;13.48;;
23394;SDS011;11870;53.084;18.206;2023-08-30T00:45:18;23.65;;;13.70;;
23394;SDS011;11870;53.084;18.206;2023-08-30T00:47:44;22.55;;;13.55;;
23394;SDS011;11870;53.084;18.206;2023-08-30T00:50:11;21.20;;;12.13;;
23394;SDS011;11870;53.084;18.206;2023-08-30T00:52:37;19.25;;;12.35;;
23394;SDS011;11870;53.084;18.206;2023-08-30T00:55:04;21.58;;;11.85;;
23394;SDS011;11870;53.084;18.206;2023-08-30T00:57:30;20.73;;;11.52;;
23394;SDS011;11870;53.084;18.206;2023-08-30T00:59:56;18.60;;;10.90;;
23394;SDS011;11870;53.084;18.206;2023-08-30T01:02:23;19.92;;;10.70;;
23394;SDS011;11870;53.084;18.206;2023-08-30T01:04:49;18.15;;;10.88;;
23394;SDS011;11870;53.084;18.206;2023-08-30T01:07:15;17.95;;;10.80;;
23394;SDS011;11870;53.084;18.206;2023-08-30T01:09:42;17.95;;;10.70;;
23394;SDS011;11870;53.084;18.206;2023-08-30T01:12:20;17.52;;;10.25;;
23394;SDS011;11870;53.084;18.206;2023-08-30T01:14:57;15.82;;;9.90;;
23394;SDS011;11870;53.084;18.206;2023-08-30T01:17:28;18.70;;;10.15;;
23394;SDS011;11870;53.084;18.206;2023-08-30T01:20:05;16.85;;;9.75;;
23394;SDS011;11870;53.084;18.206;2023-08-30T01:22:55;17.58;;;9.63;;
23394;SDS011;11870;53.084;18.206;2023-08-30T01:25:31;19.02;;;10.55;;
23394;SDS011;11870;53.084;18.206;2023-08-30T01:28:22;19.55;;;10.65;;
23394;SDS011;11870;53.084;18.206;2023-08-30T01:30:52;19.33;;;9.57;;
23394;SDS011;11870;53.084;18.206;2023-08-30T01:33:23;18.08;;;9.75;;
23394;SDS011;11870;53.084;18.206;2023-08-30T01:35:52;17.50;;;9.85;;
23394;SDS011;11870;53.084;18.206;2023-08-30T01:38:20;15.90;;;9.57;;
23394;SDS011;11870;53.084;18.206;2023-08-30T01:40:47;19.15;;;10.32;;
23394;SDS011;11870;53.084;18.206;2023-08-30T01:43:14;18.20;;;9.35;;
23394;SDS011;11870;53.084;18.206;2023-08-30T01:45:42;17.73;;;10.15;;
23394;SDS011;11870;53.084;18.206;2023-08-30T01:48:09;19.13;;;10.10;;
23394;SDS011;11870;53.084;18.206;2023-08-30T01:50:38;19.55;;;10.68;;
23394;SDS011;11870;53.084;18.206;2023-08-30T01:53:06;24.38;;;10.40;;
23394;SDS011;11870;53.084;18.206;2023-08-30T01:55:33;18.52;;;10.20;;
23394;SDS011;11870;53.084;18.206;2023-08-30T01:57:59;21.02;;;10.30;;
23394;SDS011;11870;53.084;18.206;2023-08-30T02:00:26;18.23;;;10.02;;
23394;SDS011;11870;53.084;18.206;2023-08-30T02:02:52;20.17;;;10.45;;
23394;SDS011;11870;53.084;18.206;2023-08-30T02:05:19;19.65;;;10.50;;
23394;SDS011;11870;53.084;18.206;2023-08-30T02:10:21;19.60;;;10.55;;
23394;SDS011;11870;53.084;18.206;2023-08-30T02:12:52;22.65;;;11.48;;
23394;SDS011;11870;53.084;18.206;2023-08-30T02:15:20;25.45;;;11.73;;
23394;SDS011;11870;53.084;18.206;2023-08-30T02:17:47;23.17;;;11.75;;
23394;SDS011;11870;53.084;18.206;2023-08-30T02:20:14;23.95;;;12.23;;
23394;SDS011;11870;53.084;18.206;2023-08-30T02:22:40;26.40;;;11.73;;
23394;SDS011;11870;53.084;18.206;2023-08-30T02:25:06;22.58;;;12.30;;
23394;SDS011;11870;53.084;18.206;2023-08-30T02:27:33;24.25;;;12.55;;
23394;SDS011;11870;53.084;18.206;2023-08-30T02:30:00;31.55;;;12.73;;
23394;SDS011;11870;53.084;18.206;2023-08-30T02:32:27;25.33;;;12.70;;
23394;SDS011;11870;53.084;18.206;2023-08-30T02:34:55;24.77;;;12.18;;
23394;SDS011;11870;53.084;18.206;2023-08-30T02:37:22;28.90;;;13.13;;
23394;SDS011;11870;53.084;18.206;2023-08-30T02:39:48;26.55;;;12.95;;
23394;SDS011;11870;53.084;18.206;2023-08-30T02:42:14;30.10;;;13.95;;
23394;SDS011;11870;53.084;18.206;2023-08-30T02:44:41;29.58;;;13.70;;
23394;SDS011;11870;53.084;18.206;2023-08-30T02:47:07;30.42;;;13.63;;
23394;SDS011;11870;53.084;18.206;2023-08-30T02:49:34;33.65;;;13.70;;
23394;SDS011;11870;53.084;18.206;2023-08-30T02:51:59;31.92;;;13.40;;
23394;SDS011;11870;53.084;18.206;2023-08-30T02:54:26;31.90;;;13.45;;
23394;SDS011;11870;53.084;18.206;2023-08-30T02:56:52;31.85;;;14.00;;
23394;SDS011;11870;53.084;18.206;2023-08-30T02:59:19;28.98;;;13.48;;
23394;SDS011;11870;53.084;18.206;2023-08-30T03:01:45;32.28;;;14.23;;
23394;SDS011;11870;53.084;18.206;2023-08-30T03:04:11;31.88;;;14.25;;
23394;SDS011;11870;53.084;18.206;2023-08-30T03:06:37;35.00;;;15.45;;
23394;SDS011;11870;53.084;18.206;2023-08-30T03:09:04;32.55;;;14.43;;
23394;SDS011;11870;53.084;18.206;2023-08-30T03:11:31;32.60;;;13.70;;
23394;SDS011;11870;53.084;18.206;2023-08-30T03:13:58;30.05;;;14.25;;
23394;SDS011;11870;53.084;18.206;2023-08-30T03:16:23;32.63;;;12.75;;
23394;SDS011;11870;53.084;18.206;2023-08-30T03:18:50;29.45;;;13.60;;
23394;SDS011;11870;53.084;18.206;2023-08-30T03:21:16;29.77;;;12.50;;
23394;SDS011;11870;53.084;18.206;2023-08-30T03:23:43;27.75;;;13.30;;
23394;SDS011;11870;53.084;18.206;2023-08-30T03:26:13;34.63;;;13.02;;
23394;SDS011;11870;53.084;18.206;2023-08-30T03:28:43;30.42;;;12.68;;
23394;SDS011;11870;53.084;18.206;2023-08-30T03:31:16;25.30;;;11.90;;
23394;SDS011;11870;53.084;18.206;2023-08-30T03:33:44;27.77;;;12.35;;
23394;SDS011;11870;53.084;18.206;2023-08-30T03:36:11;28.48;;;12.35;;
23394;SDS011;11870;53.084;18.206;2023-08-30T03:38:37;27.13;;;11.85;;
23394;SDS011;11870;53.084;18.206;2023-08-30T03:41:04;27.85;;;10.95;;
23394;SDS011;11870;53.084;18.206;2023-08-30T03:43:33;24.77;;;10.65;;
23394;SDS011;11870;53.084;18.206;2023-08-30T03:45:59;27.85;;;10.57;;
23394;SDS011;11870;53.084;18.206;2023-08-30T03:48:26;23.92;;;10.48;;
23394;SDS011;11870;53.084;18.206;2023-08-30T03:50:53;20.88;;;9.93;;
23394;SDS011;11870;53.084;18.206;2023-08-30T03:53:20;23.52;;;11.52;;
23394;SDS011;11870;53.084;18.206;2023-08-30T03:55:46;18.08;;;9.18;;
23394;SDS011;11870;53.084;18.206;2023-08-30T03:58:13;20.83;;;9.27;;
23394;SDS011;11870;53.084;18.206;2023-08-30T04:00:38;22.30;;;8.80;;
23394;SDS011;11870;53.084;18.206;2023-08-30T04:03:07;19.73;;;8.82;;
23394;SDS011;11870;53.084;18.206;2023-08-30T04:05:34;19.60;;;8.48;;
23394;SDS011;11870;53.084;18.206;2023-08-30T04:08:01;16.48;;;8.05;;
23394;SDS011;11870;53.084;18.206;2023-08-30T04:10:28;17.58;;;8.15;;
23394;SDS011;11870;53.084;18.206;2023-08-30T04:12:54;16.15;;;8.15;;
23394;SDS011;11870;53.084;18.206;2023-08-30T04:15:20;15.85;;;7.25;;
23394;SDS011;11870;53.084;18.206;2023-08-30T04:17:47;12.38;;;7.35;;
23394;SDS011;11870;53.084;18.206;2023-08-30T04:20:13;13.82;;;7.45;;
23394;SDS011;11870;53.084;18.206;2023-08-30T04:22:39;13.30;;;6.90;;
23394;SDS011;11870;53.084;18.206;2023-08-30T04:25:05;12.50;;;7.07;;
23394;SDS011;11870;53.084;18.206;2023-08-30T04:27:34;13.80;;;7.68;;
23394;SDS011;11870;53.084;18.206;2023-08-30T04:30:01;13.85;;;7.65;;
23394;SDS011;11870;53.084;18.206;2023-08-30T04:32:27;15.43;;;7.22;;
23394;SDS011;11870;53.084;18.206;2023-08-30T04:34:54;12.93;;;7.57;;
23394;SDS011;11870;53.084;18.206;2023-08-30T04:37:20;18.80;;;9.27;;
23394;SDS011;11870;53.084;18.206;2023-08-30T04:39:47;15.82;;;8.00;;
23394;SDS011;11870;53.084;18.206;2023-08-30T04:42:14;14.30;;;7.85;;
23394;SDS011;11870;53.084;18.206;2023-08-30T04:44:40;12.07;;;7.30;;
23394;SDS011;11870;53.084;18.206;2023-08-30T04:47:06;11.90;;;7.20;;
23394;SDS011;11870;53.084;18.206;2023-08-30T04:49:32;14.52;;;7.95;;
23394;SDS011;11870;53.084;18.206;2023-08-30T04:51:58;10.23;;;6.80;;
23394;SDS011;11870;53.084;18.206;2023-08-30T04:54:25;10.88;;;6.70;;
23394;SDS011;11870;53.084;18.206;2023-08-30T04:56:51;11.13;;;6.53;;
23394;SDS011;11870;53.084;18.206;2023-08-30T04:59:17;8.63;;;5.93;;
23394;SDS011;11870;53.084;18.206;2023-08-30T05:01:44;9.77;;;6.35;;
23394;SDS011;11870;53.084;18.206;2023-08-30T05:04:10;10.35;;;6.53;;
23394;SDS011;11870;53.084;18.206;2023-08-30T05:06:36;8.88;;;5.85;;
23394;SDS011;11870;53.084;18.206;2023-08-30T05:09:03;16.08;;;6.35;;
23394;SDS011;11870;53.084;18.206;2023-08-30T05:11:29;8.35;;;5.78;;
23394;SDS011;11870;53.084;18.206;2023-08-30T05:13:55;12.18;;;6.45;;
23394;SDS011;11870;53.084;18.206;2023-08-30T05:16:22;12.43;;;7.50;;
23394;SDS011;11870;53.084;18.206;2023-08-30T05:18:47;11.60;;;6.95;;
23394;SDS011;11870;53.084;18.206;2023-08-30T05:21:14;10.65;;;6.90;;
23394;SDS011;11870;53.084;18.206;2023-08-30T05:23:40;12.93;;;6.75;;
23394;SDS011;11870;53.084;18.206;2023-08-30T05:26:10;12.50;;;6.25;;
23394;SDS011;11870;53.084;18.206;2023-08-30T05:28:41;8.68;;;5.30;;
23394;SDS011;11870;53.084;18.206;2023-08-30T05:31:08;7.70;;;5.18;;
23394;SDS011;11870;53.084;18.206;2023-08-30T05:33:34;8.02;;;5.50;;
23394;SDS011;11870;53.084;18.206;2023-08-30T05:36:00;8.32;;;5.03;;
23394;SDS011;11870;53.084;18.206;2023-08-30T05:38:27;6.40;;;5.07;;
23394;SDS011;11870;53.084;18.206;2023-08-30T05:40:53;7.72;;;5.47;;
23394;SDS011;11870;53.084;18.206;2023-08-30T05:43:19;9.00;;;5.50;;
23394;SDS011;11870;53.084;18.206;2023-08-30T05:45:45;7.93;;;5.55;;
23394;SDS011;11870;53.084;18.206;2023-08-30T05:48:12;8.55;;;5.57;;
23394;SDS011;11870;53.084;18.206;2023-08-30T05:50:38;10.23;;;5.35;;
23394;SDS011;11870;53.084;18.206;2023-08-30T05:53:04;8.13;;;5.25;;
23394;SDS011;11870;53.084;18.206;2023-08-30T05:55:31;7.13;;;5.10;;
23394;SDS011;11870;53.084;18.206;2023-08-30T05:57:56;6.45;;;5.13;;
23394;SDS011;11870;53.084;18.206;2023-08-30T06:00:23;6.75;;;5.38;;
23394;SDS011;11870;53.084;18.206;2023-08-30T06:02:51;7.63;;;5.30;;
23394;SDS011;11870;53.084;18.206;2023-08-30T06:05:17;7.30;;;5.57;;
23394;SDS011;11870;53.084;18.206;2023-08-30T06:07:43;10.10;;;5.25;;
23394;SDS011;11870;53.084;18.206;2023-08-30T06:10:10;7.38;;;5.65;;
23394;SDS011;11870;53.084;18.206;2023-08-30T06:12:36;6.95;;;5.57;;
23394;SDS011;11870;53.084;18.206;2023-08-30T06:15:02;8.50;;;5.57;;
23394;SDS011;11870;53.084;18.206;2023-08-30T06:17:28;8.73;;;5.63;;
23394;SDS011;11870;53.084;18.206;2023-08-30T06:19:54;9.98;;;6.93;;
23394;SDS011;11870;53.084;18.206;2023-08-30T06:22:20;10.95;;;8.20;;
23394;SDS011;11870;53.084;18.206;2023-08-30T06:24:46;10.45;;;6.93;;
23394;SDS011;11870;53.084;18.206;2023-08-30T06:27:12;9.15;;;6.55;;
23394;SDS011;11870;53.084;18.206;2023-08-30T06:29:38;10.30;;;6.13;;
23394;SDS011;11870;53.084;18.206;2023-08-30T06:32:04;8.43;;;5.35;;
23394;SDS011;11870;53.084;18.206;2023-08-30T06:34:30;7.80;;;5.28;;
23394;SDS011;11870;53.084;18.206;2023-08-30T06:36:56;5.85;;;4.53;;
23394;SDS011;11870;53.084;18.206;2023-08-30T06:39:22;6.35;;;4.55;;
23394;SDS011;11870;53.084;18.206;2023-08-30T06:41:48;5.70;;;3.92;;
23394;SDS011;11870;53.084;18.206;2023-08-30T06:44:14;5.53;;;4.22;;
23394;SDS011;11870;53.084;18.206;2023-08-30T06:46:42;6.90;;;4.55;;
23394;SDS011;11870;53.084;18.206;2023-08-30T06:49:08;6.30;;;4.57;;
23394;SDS011;11870;53.084;18.206;2023-08-30T06:51:35;6.72;;;4.47;;
23394;SDS011;11870;53.084;18.206;2023-08-30T06:54:01;5.53;;;4.53;;
23394;SDS011;11870;53.084;18.206;2023-08-30T06:56:27;5.88;;;4.55;;
23394;SDS011;11870;53.084;18.206;2023-08-30T06:58:53;6.55;;;4.65;;
23394;SDS011;11870;53.084;18.206;2023-08-30T07:01:19;7.65;;;5.38;;
23394;SDS011;11870;53.084;18.206;2023-08-30T07:03:45;5.60;;;4.38;;
23394;SDS011;11870;53.084;18.206;2023-08-30T07:06:11;5.18;;;4.00;;
23394;SDS011;11870;53.084;18.206;2023-08-30T07:08:37;5.55;;;4.18;;
23394;SDS011;11870;53.084;18.206;2023-08-30T07:11:03;6.40;;;4.70;;
23394;SDS011;11870;53.084;18.206;2023-08-30T07:13:29;5.50;;;4.32;;
23394;SDS011;11870;53.084;18.206;2023-08-30T07:15:55;7.25;;;4.82;;
23394;SDS011;11870;53.084;18.206;2023-08-30T07:18:21;6.03;;;4.50;;
23394;SDS011;11870;53.084;18.206;2023-08-30T07:20:47;10.07;;;5.38;;
23394;SDS011;11870;53.084;18.206;2023-08-30T07:23:13;9.48;;;6.20;;
23394;SDS011;11870;53.084;18.206;2023-08-30T07:25:39;9.13;;;6.90;;
23394;SDS011;11870;53.084;18.206;2023-08-30T07:28:05;9.30;;;6.35;;
23394;SDS011;11870;53.084;18.206;2023-08-30T07:30:31;8.48;;;6.05;;
23394;SDS011;11870;53.084;18.206;2023-08-30T07:32:58;7.18;;;5.15;;
23394;SDS011;11870;53.084;18.206;2023-08-30T07:35:23;5.22;;;4.25;;
23394;SDS011;11870;53.084;18.206;2023-08-30T07:37:49;6.05;;;4.57;;
23394;SDS011;11870;53.084;18.206;2023-08-30T07:40:15;5.13;;;4.13;;
23394;SDS011;11870;53.084;18.206;2023-08-30T07:42:41;6.03;;;4.78;;
23394;SDS011;11870;53.084;18.206;2023-08-30T07:45:07;6.55;;;5.25;;
23394;SDS011;11870;53.084;18.206;2023-08-30T07:47:34;6.28;;;4.60;;
23394;SDS011;11870;53.084;18.206;2023-08-30T07:50:00;7.30;;;5.32;;
23394;SDS011;11870;53.084;18.206;2023-08-30T07:52:26;8.57;;;6.13;;
23394;SDS011;11870;53.084;18.206;2023-08-30T07:54:52;11.82;;;8.18;;
23394;SDS011;11870;53.084;18.206;2023-08-30T07:57:18;10.10;;;7.28;;
23394;SDS011;11870;53.084;18.206;2023-08-30T07:59:44;8.93;;;4.88;;
23394;SDS011;11870;53.084;18.206;2023-08-30T08:02:10;6.32;;;4.20;;
23394;SDS011;11870;53.084;18.206;2023-08-30T08:04:36;7.10;;;4.72;;
23394;SDS011;11870;53.084;18.206;2023-08-30T08:07:02;5.30;;;4.00;;
23394;SDS011;11870;53.084;18.206;2023-08-30T08:09:30;4.53;;;3.78;;
23394;SDS011;11870;53.084;18.206;2023-08-30T08:11:56;5.00;;;4.07;;
23394;SDS011;11870;53.084;18.206;2023-08-30T08:14:23;4.82;;;3.70;;
23394;SDS011;11870;53.084;18.206;2023-08-30T08:16:49;6.38;;;4.25;;
23394;SDS011;11870;53.084;18.206;2023-08-30T08:19:15;6.28;;;3.63;;
23394;SDS011;11870;53.084;18.206;2023-08-30T08:21:41;4.53;;;3.72;;
23394;SDS011;11870;53.084;18.206;2023-08-30T08:24:07;4.63;;;3.42;;
23394;SDS011;11870;53.084;18.206;2023-08-30T08:26:33;6.95;;;3.95;;
23394;SDS011;11870;53.084;18.206;2023-08-30T08:28:59;4.40;;;3.42;;
23394;SDS011;11870;53.084;18.206;2023-08-30T08:31:25;4.93;;;3.53;;
23394;SDS011;11870;53.084;18.206;2023-08-30T08:34:05;3.95;;;3.47;;
23394;SDS011;11870;53.084;18.206;2023-08-30T08:36:36;4.35;;;3.55;;
23394;SDS011;11870;53.084;18.206;2023-08-30T08:39:03;3.67;;;3.28;;
23394;SDS011;11870;53.084;18.206;2023-08-30T08:41:39;6.97;;;3.20;;
23394;SDS011;11870;53.084;18.206;2023-08-30T08:44:09;4.40;;;3.15;;
23394;SDS011;11870;53.084;18.206;2023-08-30T08:46:36;5.05;;;2.90;;
23394;SDS011;11870;53.084;18.206;2023-08-30T08:49:14;4.38;;;3.08;;
23394;SDS011;11870;53.084;18.206;2023-08-30T08:51:41;5.35;;;3.47;;
23394;SDS011;11870;53.084;18.206;2023-08-30T08:54:08;3.70;;;3.20;;
23394;SDS011;11870;53.084;18.206;2023-08-30T08:56:37;5.57;;;3.30;;
23394;SDS011;11870;53.084;18.206;2023-08-30T08:59:04;4.55;;;3.20;;
23394;SDS011;11870;53.084;18.206;2023-08-30T09:01:34;3.47;;;3.00;;
23394;SDS011;11870;53.084;18.206;2023-08-30T09:04:03;3.83;;;3.08;;
23394;SDS011;11870;53.084;18.206;2023-08-30T09:06:31;6.40;;;3.47;;
23394;SDS011;11870;53.084;18.206;2023-08-30T09:08:57;5.97;;;4.45;;
23394;SDS011;11870;53.084;18.206;2023-08-30T09:11:24;4.65;;;3.20;;
23394;SDS011;11870;53.084;18.206;2023-08-30T09:13:49;3.03;;;2.72;;
23394;SDS011;11870;53.084;18.206;2023-08-30T09:16:16;4.72;;;3.88;;
23394;SDS011;11870;53.084;18.206;2023-08-30T09:18:42;5.40;;;3.80;;
23394;SDS011;11870;53.084;18.206;2023-08-30T09:21:08;3.42;;;2.67;;
23394;SDS011;11870;53.084;18.206;2023-08-30T09:23:35;3.00;;;2.47;;
23394;SDS011;11870;53.084;18.206;2023-08-30T09:26:02;2.70;;;2.40;;
23394;SDS011;11870;53.084;18.206;2023-08-30T09:28:29;4.72;;;2.47;;
23394;SDS011;11870;53.084;18.206;2023-08-30T09:30:57;2.40;;;2.00;;
23394;SDS011;11870;53.084;18.206;2023-08-30T09:33:31;2.60;;;2.10;;
23394;SDS011;11870;53.084;18.206;2023-08-30T09:35:59;4.53;;;2.20;;
23394;SDS011;11870;53.084;18.206;2023-08-30T09:38:25;4.68;;;2.38;;
23394;SDS011;11870;53.084;18.206;2023-08-30T09:40:52;5.25;;;2.90;;
23394;SDS011;11870;53.084;18.206;2023-08-30T09:43:27;3.80;;;3.03;;
23394;SDS011;11870;53.084;18.206;2023-08-30T09:45:53;5.20;;;3.15;;
23394;SDS011;11870;53.084;18.206;2023-08-30T09:48:22;3.88;;;2.83;;
23394;SDS011;11870;53.084;18.206;2023-08-30T09:50:53;4.38;;;3.10;;
23394;SDS011;11870;53.084;18.206;2023-08-30T09:53:25;5.97;;;3.30;;
23394;SDS011;11870;53.084;18.206;2023-08-30T09:55:55;3.83;;;3.42;;
23394;SDS011;11870;53.084;18.206;2023-08-30T09:58:22;5.97;;;3.60;;
23394;SDS011;11870;53.084;18.206;2023-08-30T10:00:49;3.88;;;3.42;;
23394;SDS011;11870;53.084;18.206;2023-08-30T10:03:16;4.88;;;2.92;;
23394;SDS011;11870;53.084;18.206;2023-08-30T10:05:43;4.28;;;2.90;;
23394;SDS011;11870;53.084;18.206;2023-08-30T10:08:11;3.90;;;2.85;;
23394;SDS011;11870;53.084;18.206;2023-08-30T10:10:39;3.10;;;2.80;;
23394;SDS011;11870;53.084;18.206;2023-08-30T10:13:05;5.25;;;3.13;;
23394;SDS011;11870;53.084;18.206;2023-08-30T10:15:33;4.78;;;3.40;;
23394;SDS011;11870;53.084;18.206;2023-08-30T10:18:02;5.90;;;4.65;;
23394;SDS011;11870;53.084;18.206;2023-08-30T10:20:29;7.68;;;6.15;;
23394;SDS011;11870;53.084;18.206;2023-08-30T10:22:55;6.88;;;5.55;;
23394;SDS011;11870;53.084;18.206;2023-08-30T10:25:25;5.30;;;3.92;;
23394;SDS011;11870;53.084;18.206;2023-08-30T10:27:53;7.63;;;5.97;;
23394;SDS011;11870;53.084;18.206;2023-08-30T10:30:21;7.35;;;6.25;;
23394;SDS011;11870;53.084;18.206;2023-08-30T10:32:47;8.20;;;6.55;;
23394;SDS011;11870;53.084;18.206;2023-08-30T10:35:15;6.93;;;5.72;;
23394;SDS011;11870;53.084;18.206;2023-08-30T10:37:53;4.63;;;4.13;;
23394;SDS011;11870;53.084;18.206;2023-08-30T10:40:24;3.75;;;3.42;;
23394;SDS011;11870;53.084;18.206;2023-08-30T10:43:00;3.90;;;3.00;;
23394;SDS011;11870;53.084;18.206;2023-08-30T10:45:27;5.32;;;2.88;;
23394;SDS011;11870;53.084;18.206;2023-08-30T10:47:56;2.88;;;2.47;;
23394;SDS011;11870;53.084;18.206;2023-08-30T10:50:27;2.70;;;2.50;;
23394;SDS011;11870;53.084;18.206;2023-08-30T10:52:57;3.28;;;2.97;;
23394;SDS011;11870;53.084;18.206;2023-08-30T10:55:24;3.13;;;2.83;;
23394;SDS011;11870;53.084;18.206;2023-08-30T10:58:03;2.55;;;2.35;;
23394;SDS011;11870;53.084;18.206;2023-08-30T11:00:32;4.55;;;3.95;;
23394;SDS011;11870;53.084;18.206;2023-08-30T11:02:58;4.80;;;2.80;;
23394;SDS011;11870;53.084;18.206;2023-08-30T11:05:26;4.03;;;2.70;;
23394;SDS011;11870;53.084;18.206;2023-08-30T11:07:53;3.55;;;2.95;;
23394;SDS011;11870;53.084;18.206;2023-08-30T11:10:20;7.05;;;3.05;;
23394;SDS011;11870;53.084;18.206;2023-08-30T11:12:47;4.45;;;3.05;;
23394;SDS011;11870;53.084;18.206;2023-08-30T11:15:17;2.50;;;2.30;;
23394;SDS011;11870;53.084;18.206;2023-08-30T11:17:43;2.30;;;2.10;;
23394;SDS011;11870;53.084;18.206;2023-08-30T11:20:11;2.25;;;1.80;;
23394;SDS011;11870;53.084;18.206;2023-08-30T11:22:45;2.83;;;1.95;;
23394;SDS011;11870;53.084;18.206;2023-08-30T11:25:13;2.88;;;1.77;;
23394;SDS011;11870;53.084;18.206;2023-08-30T11:27:40;2.47;;;2.03;;
23394;SDS011;11870;53.084;18.206;2023-08-30T11:30:07;5.30;;;2.05;;
23394;SDS011;11870;53.084;18.206;2023-08-30T11:32:38;3.75;;;2.90;;
23394;SDS011;11870;53.084;18.206;2023-08-30T11:35:05;18.25;;;13.27;;
23394;SDS011;11870;53.084;18.206;2023-08-30T11:37:32;10.00;;;6.55;;
23394;SDS011;11870;53.084;18.206;2023-08-30T11:39:58;8.02;;;4.35;;
23394;SDS011;11870;53.084;18.206;2023-08-30T11:42:26;2.95;;;2.63;;
23394;SDS011;11870;53.084;18.206;2023-08-30T11:44:52;2.90;;;2.17;;
23394;SDS011;11870;53.084;18.206;2023-08-30T11:47:19;4.43;;;2.38;;
23394;SDS011;11870;53.084;18.206;2023-08-30T11:49:57;2.20;;;2.00;;
23394;SDS011;11870;53.084;18.206;2023-08-30T11:52:24;3.08;;;1.80;;
23394;SDS011;11870;53.084;18.206;2023-08-30T11:54:51;2.33;;;2.13;;
23394;SDS011;11870;53.084;18.206;2023-08-30T11:57:19;2.08;;;1.83;;
23394;SDS011;11870;53.084;18.206;2023-08-30T11:59:46;4.30;;;1.90;;
23394;SDS011;11870;53.084;18.206;2023-08-30T12:02:13;2.25;;;1.70;;
23394;SDS011;11870;53.084;18.206;2023-08-30T12:04:40;2.45;;;1.70;;
23394;SDS011;11870;53.084;18.206;2023-08-30T12:07:07;1.67;;;1.48;;
23394;SDS011;11870;53.084;18.206;2023-08-30T12:09:33;3.05;;;1.45;;
23394;SDS011;11870;53.084;18.206;2023-08-30T12:12:09;1.30;;;1.20;;
23394;SDS011;11870;53.084;18.206;2023-08-30T12:14:39;1.80;;;1.40;;
23394;SDS011;11870;53.084;18.206;2023-08-30T12:17:06;1.92;;;1.50;;
23394;SDS011;11870;53.084;18.206;2023-08-30T12:19:34;3.58;;;1.40;;
23394;SDS011;11870;53.084;18.206;2023-08-30T12:22:03;2.13;;;1.73;;
23394;SDS011;11870;53.084;18.206;2023-08-30T12:24:40;2.17;;;1.67;;
23394;SDS011;11870;53.084;18.206;2023-08-30T12:27:10;3.15;;;1.50;;
23394;SDS011;11870;53.084;18.206;2023-08-30T12:29:36;1.90;;;1.63;;
23394;SDS011;11870;53.084;18.206;2023-08-30T12:32:02;2.30;;;1.88;;
23394;SDS011;11870;53.084;18.206;2023-08-30T12:34:28;1.63;;;1.52;;
23394;SDS011;11870;53.084;18.206;2023-08-30T12:36:54;2.78;;;1.63;;
23394;SDS011;11870;53.084;18.206;2023-08-30T12:39:20;2.90;;;2.00;;
23394;SDS011;11870;53.084;18.206;2023-08-30T12:41:46;2.42;;;1.70;;
23394;SDS011;11870;53.084;18.206;2023-08-30T12:44:12;2.92;;;1.83;;
23394;SDS011;11870;53.084;18.206;2023-08-30T12:46:38;1.95;;;1.75;;
23394;SDS011;11870;53.084;18.206;2023-08-30T12:49:05;1.70;;;1.60;;
23394;SDS011;11870;53.084;18.206;2023-08-30T12:51:30;1.55;;;1.45;;
23394;SDS011;11870;53.084;18.206;2023-08-30T12:53:57;2.30;;;2.10;;
23394;SDS011;11870;53.084;18.206;2023-08-30T12:56:22;2.08;;;1.88;;
23394;SDS011;11870;53.084;18.206;2023-08-30T12:58:48;2.17;;;1.65;;
23394;SDS011;11870;53.084;18.206;2023-08-30T13:01:16;1.70;;;1.60;;
23394;SDS011;11870;53.084;18.206;2023-08-30T13:03:42;1.70;;;1.50;;
23394;SDS011;11870;53.084;18.206;2023-08-30T13:06:08;1.98;;;1.65;;
23394;SDS011;11870;53.084;18.206;2023-08-30T13:08:34;2.72;;;1.70;;
23394;SDS011;11870;53.084;18.206;2023-08-30T13:11:00;1.65;;;1.55;;
23394;SDS011;11870;53.084;18.206;2023-08-30T13:13:26;2.08;;;1.67;;
23394;SDS011;11870;53.084;18.206;2023-08-30T13:15:52;2.75;;;1.60;;
23394;SDS011;11870;53.084;18.206;2023-08-30T13:18:18;3.58;;;1.65;;
23394;SDS011;11870;53.084;18.206;2023-08-30T13:20:44;1.30;;;1.20;;
23394;SDS011;11870;53.084;18.206;2023-08-30T13:23:10;1.23;;;0.90;;
23394;SDS011;11870;53.084;18.206;2023-08-30T13:25:39;2.13;;;0.90;;
23394;SDS011;11870;53.084;18.206;2023-08-30T13:28:06;0.75;;;0.70;;
23394;SDS011;11870;53.084;18.206;2023-08-30T13:30:33;1.13;;;1.02;;
23394;SDS011;11870;53.084;18.206;2023-08-30T13:32:59;2.53;;;1.50;;
23394;SDS011;11870;53.084;18.206;2023-08-30T13:35:25;1.63;;;1.52;;
23394;SDS011;11870;53.084;18.206;2023-08-30T13:37:51;2.25;;;1.80;;
23394;SDS011;11870;53.084;18.206;2023-08-30T13:40:16;2.85;;;1.50;;
23394;SDS011;11870;53.084;18.206;2023-08-30T13:42:43;2.35;;;1.70;;
23394;SDS011;11870;53.084;18.206;2023-08-30T13:45:08;1.92;;;1.30;;
23394;SDS011;11870;53.084;18.206;2023-08-30T13:47:35;3.13;;;1.60;;
23394;SDS011;11870;53.084;18.206;2023-08-30T13:50:01;2.15;;;1.73;;
23394;SDS011;11870;53.084;18.206;2023-08-30T13:52:29;2.17;;;1.98;;
23394;SDS011;11870;53.084;18.206;2023-08-30T13:54:55;1.67;;;1.58;;
23394;SDS011;11870;53.084;18.206;2023-08-30T13:57:21;2.42;;;1.70;;
23394;SDS011;11870;53.084;18.206;2023-08-30T13:59:47;1.98;;;1.42;;
23394;SDS011;11870;53.084;18.206;2023-08-30T14:02:14;2.35;;;1.50;;
23394;SDS011;11870;53.084;18.206;2023-08-30T14:04:39;3.55;;;1.65;;
23394;SDS011;11870;53.084;18.206;2023-08-30T14:07:05;4.45;;;1.70;;
23394;SDS011;11870;53.084;18.206;2023-08-30T14:09:31;1.77;;;1.60;;
23394;SDS011;11870;53.084;18.206;2023-08-30T14:11:57;2.55;;;1.60;;
23394;SDS011;11870;53.084;18.206;2023-08-30T14:14:24;1.98;;;1.00;;
23394;SDS011;11870;53.084;18.206;2023-08-30T14:16:50;1.75;;;1.08;;
23394;SDS011;11870;53.084;18.206;2023-08-30T14:19:16;1.52;;;1.27;;
23394;SDS011;11870;53.084;18.206;2023-08-30T14:21:42;3.20;;;1.60;;
23394;SDS011;11870;53.084;18.206;2023-08-30T14:24:08;2.95;;;2.00;;
23394;SDS011;11870;53.084;18.206;2023-08-30T14:26:34;2.53;;;1.95;;
23394;SDS011;11870;53.084;18.206;2023-08-30T14:29:00;5.53;;;2.40;;